createdAt,value
2023-05-17T00:00:25.775Z,15.40
2023-05-17T00:03:28.470Z,15.40
2023-05-17T00:06:31.946Z,15.38
2023-05-17T00:09:34.568Z,15.35
2023-05-17T00:12:37.156Z,15.33
2023-05-17T00:15:41.991Z,15.29
2023-05-17T00:18:44.990Z,15.25
2023-05-17T00:21:47.647Z,15.23
2023-05-17T00:24:50.401Z,15.26
2023-05-17T00:27:54.374Z,15.26
2023-05-17T00:30:56.977Z,15.24
2023-05-17T00:33:59.972Z,15.19
2023-05-17T00:37:02.494Z,15.15
2023-05-17T00:40:06.306Z,15.10
2023-05-17T00:43:12.165Z,15.06
2023-05-17T00:46:16.302Z,15.00
2023-05-17T00:49:19.494Z,14.89
2023-05-17T00:52:22.070Z,14.86
2023-05-17T00:55:24.644Z,14.88
2023-05-17T00:58:27.877Z,14.86
2023-05-17T01:01:30.504Z,14.85
2023-05-17T01:04:33.174Z,14.85
2023-05-17T01:07:35.820Z,14.90
2023-05-17T01:10:54.679Z,14.97
2023-05-17T01:14:37.943Z,15.04
2023-05-17T01:18:05.684Z,15.07
2023-05-17T01:21:29.992Z,15.10
2023-05-17T01:24:32.625Z,15.09
2023-05-17T01:27:36.814Z,15.04
2023-05-17T01:30:40.871Z,15.08
2023-05-17T01:33:45.330Z,15.02
2023-05-17T01:36:47.931Z,15.03
2023-05-17T01:39:50.696Z,15.13
2023-05-17T01:43:38.297Z,15.22
2023-05-17T01:46:45.664Z,15.30
2023-05-17T01:49:54.192Z,15.36
2023-05-17T01:53:35.484Z,15.39
2023-05-17T01:56:43.949Z,15.38
2023-05-17T01:59:49.278Z,15.42
2023-05-17T02:02:51.931Z,15.38
2023-05-17T02:05:56.298Z,15.29
2023-05-17T02:09:01.253Z,15.22
2023-05-17T02:12:04.168Z,15.18
2023-05-17T02:15:09.309Z,15.15
2023-05-17T02:18:14.331Z,15.14
2023-05-17T02:21:18.627Z,15.04
2023-05-17T02:24:21.267Z,14.90
2023-05-17T02:27:24.017Z,14.98
2023-05-17T02:30:26.801Z,15.09
2023-05-17T02:33:30.009Z,15.13
2023-05-17T02:36:32.880Z,15.17
2023-05-17T02:39:36.059Z,15.19
2023-05-17T02:42:38.714Z,15.12
2023-05-17T02:45:41.282Z,15.05
2023-05-17T02:48:43.834Z,15.00
2023-05-17T02:51:46.435Z,14.93
2023-05-17T02:54:51.768Z,14.88
2023-05-17T02:57:54.828Z,14.85
2023-05-17T03:00:58.524Z,14.83
2023-05-17T03:04:01.268Z,14.82
2023-05-17T03:07:07.144Z,14.77
2023-05-17T03:10:11.034Z,14.85
2023-05-17T03:13:18.711Z,14.85
2023-05-17T03:16:21.764Z,14.81
2023-05-17T03:19:28.724Z,14.86
2023-05-17T03:22:32.094Z,14.89
2023-05-17T03:25:35.474Z,14.85
2023-05-17T03:28:40.481Z,14.86
2023-05-17T03:31:43.409Z,14.93
2023-05-17T03:34:46.507Z,15.01
2023-05-17T03:37:49.272Z,15.11
2023-05-17T03:40:53.357Z,15.13
2023-05-17T03:43:56.397Z,15.15
2023-05-17T03:46:59.042Z,15.21
2023-05-17T03:50:02.186Z,15.25
2023-05-17T03:53:07.277Z,15.25
2023-05-17T03:56:10.940Z,15.33
2023-05-17T03:59:14.062Z,15.32
2023-05-17T04:02:16.913Z,15.48
2023-05-17T04:05:20.358Z,15.54
2023-05-17T04:08:24.070Z,15.58
2023-05-17T04:11:27.679Z,15.65
2023-05-17T04:14:31.284Z,15.66
2023-05-17T04:17:35.190Z,15.68
2023-05-17T04:20:39.165Z,15.76
2023-05-17T04:23:41.887Z,15.82
2023-05-17T04:26:44.943Z,15.87
2023-05-17T04:29:47.684Z,15.96
2023-05-17T04:32:50.619Z,16.04
2023-05-17T04:35:56.876Z,16.09
2023-05-17T04:39:01.099Z,16.15
2023-05-17T04:42:05.894Z,16.18
2023-05-17T04:45:15.371Z,16.25
2023-05-17T04:48:23.918Z,16.34
2023-05-17T04:51:27.861Z,16.45
2023-05-17T04:54:32.246Z,16.54
2023-05-17T04:57:35.942Z,16.62
2023-05-17T05:00:40.776Z,16.69
2023-05-17T05:03:45.732Z,16.74
2023-05-17T05:06:49.253Z,16.80
2023-05-17T05:09:52.290Z,16.93
2023-05-17T05:12:58.229Z,17.10
2023-05-17T05:16:01.906Z,17.23
2023-05-17T05:19:05.147Z,17.27
2023-05-17T05:22:08.742Z,17.33
2023-05-17T05:25:13.096Z,17.38
2023-05-17T05:28:15.833Z,17.39
2023-05-17T05:31:19.121Z,17.44
2023-05-17T05:34:28.613Z,17.42
2023-05-17T05:37:31.685Z,17.43
2023-05-17T05:40:35.436Z,17.40
2023-05-17T05:43:38.242Z,17.45
2023-05-17T05:46:41.336Z,17.53
2023-05-17T05:49:46.009Z,17.55
2023-05-17T05:52:49.262Z,17.61
2023-05-17T05:55:52.819Z,17.55
2023-05-17T05:58:57.639Z,17.71
2023-05-17T06:02:01.055Z,17.81
2023-05-17T06:05:05.240Z,17.88
2023-05-17T06:08:08.044Z,17.90
2023-05-17T06:11:10.574Z,17.94
2023-05-17T06:14:13.793Z,18.02
2023-05-17T06:17:17.387Z,17.96
2023-05-17T06:20:20.684Z,17.90
2023-05-17T06:23:24.232Z,17.83
2023-05-17T06:26:27.640Z,17.79
2023-05-17T06:29:31.175Z,17.93
2023-05-17T06:32:34.329Z,17.92
2023-05-17T06:35:51.631Z,17.99
2023-05-17T06:38:58.512Z,17.93
2023-05-17T06:42:01.605Z,17.88
2023-05-17T06:45:08.054Z,17.88
2023-05-17T06:48:10.681Z,17.81
2023-05-17T06:51:14.235Z,17.76
2023-05-17T06:54:17.215Z,17.76
2023-05-17T06:57:19.862Z,17.79
2023-05-17T07:00:23.018Z,17.76
2023-05-17T07:03:25.733Z,17.70
2023-05-17T07:06:28.480Z,17.74
2023-05-17T07:09:31.092Z,17.79
2023-05-17T07:12:35.160Z,17.77
2023-05-17T07:15:39.083Z,17.88
2023-05-17T07:18:43.871Z,17.98
2023-05-17T07:21:47.854Z,18.03
2023-05-17T07:24:51.125Z,18.03
2023-05-17T07:27:53.932Z,18.04
2023-05-17T07:30:58.648Z,17.98
2023-05-17T07:34:01.300Z,17.95
2023-05-17T07:37:04.383Z,18.00
2023-05-17T07:40:07.883Z,18.03
2023-05-17T07:43:10.746Z,18.00
2023-05-17T07:46:13.331Z,18.03
2023-05-17T07:49:17.268Z,18.07
2023-05-17T07:52:19.879Z,18.11
2023-05-17T07:55:23.718Z,18.14
2023-05-17T07:58:26.828Z,18.27
2023-05-17T08:01:29.433Z,18.36
2023-05-17T08:04:32.536Z,18.32
2023-05-17T08:07:35.315Z,18.33
2023-05-17T08:10:38.045Z,18.38
2023-05-17T08:13:40.704Z,18.40
2023-05-17T08:16:47.568Z,18.27
2023-05-17T08:19:53.816Z,18.20
2023-05-17T08:22:56.884Z,18.16
2023-05-17T08:25:59.480Z,18.23
2023-05-17T08:29:02.813Z,18.22
2023-05-17T08:32:05.934Z,18.17
2023-05-17T08:35:08.786Z,18.21
2023-05-17T08:38:11.686Z,18.22
2023-05-17T08:41:14.433Z,18.30
2023-05-17T08:44:17.317Z,18.40
2023-05-17T08:47:29.796Z,18.52
2023-05-17T08:50:34.744Z,18.61
2023-05-17T08:53:39.009Z,18.63
2023-05-17T08:56:43.018Z,18.71
2023-05-17T08:59:47.231Z,18.74
2023-05-17T09:02:50.015Z,18.78
2023-05-17T09:05:53.766Z,18.95
2023-05-17T09:08:58.730Z,18.87
2023-05-17T09:12:04.309Z,18.80
2023-05-17T09:15:15.037Z,18.89
2023-05-17T09:18:19.622Z,18.98
2023-05-17T09:21:24.194Z,19.09
2023-05-17T09:24:31.094Z,19.24
2023-05-17T09:27:33.724Z,19.49
2023-05-17T09:30:39.110Z,20.26
2023-05-17T09:33:46.826Z,20.78
2023-05-17T09:36:49.640Z,21.52
2023-05-17T09:39:53.849Z,21.87
2023-05-17T09:42:56.847Z,21.43
2023-05-17T09:45:59.801Z,21.30
2023-05-17T09:49:04.141Z,21.24
2023-05-17T09:52:08.475Z,21.57
2023-05-17T09:55:15.552Z,21.84
2023-05-17T09:58:19.779Z,21.82
2023-05-17T10:01:26.374Z,21.79
2023-05-17T10:04:32.035Z,21.82
2023-05-17T10:07:35.165Z,22.10
2023-05-17T10:10:39.012Z,22.62
2023-05-17T10:13:49.905Z,23.10
2023-05-17T10:16:54.410Z,23.73
2023-05-17T10:19:59.042Z,23.99
2023-05-17T10:23:03.858Z,23.74
2023-05-17T10:26:07.012Z,23.52
2023-05-17T10:29:10.100Z,23.30
2023-05-17T10:32:14.447Z,23.15
2023-05-17T10:35:18.652Z,23.84
2023-05-17T10:38:24.010Z,24.18
2023-05-17T10:41:33.071Z,23.78
2023-05-17T10:44:37.948Z,23.27
2023-05-17T10:47:42.934Z,22.82
2023-05-17T10:51:00.755Z,22.20
2023-05-17T10:54:33.848Z,21.54
2023-05-17T10:57:50.740Z,21.15
2023-05-17T11:00:55.966Z,20.67
2023-05-17T11:03:59.001Z,20.58
2023-05-17T11:07:26.084Z,20.45
2023-05-17T11:10:28.970Z,20.46
2023-05-17T11:13:31.695Z,20.83
2023-05-17T11:16:38.333Z,21.74
2023-05-17T11:19:57.073Z,22.99
2023-05-17T11:23:02.760Z,23.91
2023-05-17T11:26:22.954Z,24.77
2023-05-17T11:29:30.989Z,26.51
2023-05-17T11:32:34.728Z,25.96
2023-05-17T11:35:39.944Z,25.18
2023-05-17T11:38:43.574Z,24.87
2023-05-17T11:41:54.625Z,24.37
2023-05-17T11:44:58.396Z,24.15
2023-05-17T11:48:02.480Z,23.79
2023-05-17T11:51:05.115Z,23.82
2023-05-17T11:54:08.492Z,24.67
2023-05-17T11:57:13.321Z,25.39
2023-05-17T12:00:27.168Z,25.25
2023-05-17T12:03:32.075Z,25.97
2023-05-17T12:06:36.573Z,26.01
2023-05-17T12:09:40.548Z,25.93
2023-05-17T12:12:43.204Z,28.01
2023-05-17T12:15:57.488Z,27.66
2023-05-17T12:19:00.324Z,27.08
2023-05-17T12:22:14.226Z,27.28
2023-05-17T12:25:22.611Z,26.50
2023-05-17T12:28:25.120Z,26.24
2023-05-17T12:31:40.140Z,26.07
2023-05-17T12:34:42.846Z,26.92
2023-05-17T12:37:46.020Z,27.06
2023-05-17T12:40:48.773Z,26.51
2023-05-17T12:43:53.230Z,26.45
2023-05-17T12:47:03.010Z,26.58
2023-05-17T12:50:06.076Z,26.02
2023-05-17T12:53:09.395Z,25.33
2023-05-17T12:56:21.682Z,25.57
2023-05-17T12:59:29.319Z,26.03
2023-05-17T13:02:33.586Z,26.13
2023-05-17T13:05:36.367Z,26.26
2023-05-17T13:08:39.035Z,26.06
2023-05-17T13:11:51.456Z,29.23
2023-05-17T13:14:55.191Z,32.69
2023-05-17T13:17:58.311Z,33.47
2023-05-17T13:21:01.955Z,34.94
2023-05-17T13:24:04.814Z,34.42
2023-05-17T13:27:08.103Z,35.60
2023-05-17T13:30:11.791Z,34.04
2023-05-17T13:33:14.373Z,34.59
2023-05-17T13:36:17.012Z,34.41
2023-05-17T13:39:21.710Z,34.22
2023-05-17T13:42:25.595Z,34.71
2023-05-17T13:45:29.050Z,34.86
2023-05-17T13:48:31.821Z,35.18
2023-05-17T13:51:35.084Z,34.78
2023-05-17T13:54:38.105Z,33.37
2023-05-17T13:57:40.813Z,32.25
2023-05-17T14:00:44.725Z,32.82
2023-05-17T14:03:47.381Z,32.89
2023-05-17T14:06:54.118Z,31.58
2023-05-17T14:09:57.891Z,28.53
2023-05-17T14:13:00.487Z,26.94
2023-05-17T14:16:03.066Z,25.85
2023-05-17T14:19:05.716Z,25.11
2023-05-17T14:22:09.008Z,24.78
2023-05-17T14:25:11.837Z,24.62
2023-05-17T14:28:15.176Z,24.23
2023-05-17T14:31:17.788Z,23.89
2023-05-17T14:34:20.672Z,23.77
2023-05-17T14:37:23.359Z,23.32
2023-05-17T14:40:26.137Z,23.24
2023-05-17T14:43:29.127Z,22.98
2023-05-17T14:46:31.776Z,22.72
2023-05-17T14:49:34.700Z,22.26
2023-05-17T14:52:37.373Z,21.82
2023-05-17T14:55:40.474Z,21.44
2023-05-17T14:58:43.385Z,21.95
2023-05-17T15:01:46.029Z,22.39
2023-05-17T15:04:48.757Z,22.49
2023-05-17T15:07:52.410Z,22.69
2023-05-17T15:10:56.025Z,22.21
2023-05-17T15:14:00.225Z,22.21
2023-05-17T15:17:04.367Z,22.19
2023-05-17T15:20:08.577Z,22.18
2023-05-17T15:23:12.041Z,21.90
2023-05-17T15:26:14.603Z,21.39
2023-05-17T15:29:18.384Z,20.82
2023-05-17T15:32:21.259Z,20.79
2023-05-17T15:35:24.832Z,20.65
2023-05-17T15:38:27.466Z,20.33
2023-05-17T15:41:31.769Z,19.93
2023-05-17T15:44:34.282Z,19.78
2023-05-17T15:47:43.111Z,19.76
2023-05-17T15:50:48.291Z,19.58
2023-05-17T15:53:52.314Z,19.49
2023-05-17T15:56:54.905Z,19.27
2023-05-17T15:59:58.418Z,19.24
2023-05-17T16:03:01.395Z,19.12
2023-05-17T16:06:05.084Z,18.77
2023-05-17T16:09:08.664Z,18.50
2023-05-17T16:12:11.302Z,18.10
2023-05-17T16:15:13.868Z,17.92
2023-05-17T16:18:16.939Z,17.79
2023-05-17T16:21:20.108Z,17.77
2023-05-17T16:24:23.784Z,17.69
2023-05-17T16:27:26.417Z,17.33
2023-05-17T16:30:29.190Z,17.32
2023-05-17T16:33:32.231Z,17.25
2023-05-17T16:36:35.201Z,17.15
2023-05-17T16:39:37.875Z,17.07
2023-05-17T16:42:40.402Z,17.00
2023-05-17T16:45:44.896Z,17.03
2023-05-17T16:48:47.528Z,16.94
2023-05-17T16:51:52.352Z,16.81
2023-05-17T16:55:01.553Z,16.75
2023-05-17T16:58:05.057Z,16.70
2023-05-17T17:01:08.492Z,16.66
2023-05-17T17:04:12.083Z,16.57
2023-05-17T17:07:15.780Z,16.50
2023-05-17T17:10:20.733Z,16.50
2023-05-17T17:13:23.702Z,16.44
2023-05-17T17:16:26.748Z,16.39
2023-05-17T17:19:29.732Z,16.37
2023-05-17T17:22:34.820Z,16.39
2023-05-17T17:25:37.510Z,16.31
2023-05-17T17:28:40.492Z,16.08
2023-05-17T17:31:43.782Z,16.05
2023-05-17T17:34:46.644Z,16.04
2023-05-17T17:37:50.227Z,15.93
2023-05-17T17:40:54.619Z,15.74
2023-05-17T17:43:58.201Z,15.72
2023-05-17T17:47:01.816Z,15.59
2023-05-17T17:50:06.984Z,15.50
2023-05-17T17:53:10.785Z,15.41
2023-05-17T17:56:14.482Z,15.36
2023-05-17T17:59:17.826Z,15.24
2023-05-17T18:02:21.405Z,15.25
2023-05-17T18:05:26.252Z,15.27
2023-05-17T18:08:30.594Z,15.26
2023-05-17T18:11:34.301Z,15.16
2023-05-17T18:14:38.145Z,15.24
2023-05-17T18:17:41.936Z,15.33
2023-05-17T18:20:45.635Z,15.28
2023-05-17T18:23:49.653Z,15.23
2023-05-17T18:26:53.399Z,15.15
2023-05-17T18:29:56.964Z,15.11
2023-05-17T18:33:02.053Z,15.12
2023-05-17T18:36:06.562Z,15.10
2023-05-17T18:39:10.326Z,15.06
2023-05-17T18:42:14.384Z,15.08
2023-05-17T18:45:18.743Z,15.03
2023-05-17T18:48:25.201Z,15.02
2023-05-17T18:51:33.326Z,15.02
2023-05-17T18:54:37.921Z,15.04
2023-05-17T18:57:44.576Z,15.09
2023-05-17T19:00:51.259Z,15.13
2023-05-17T19:03:56.618Z,15.15
2023-05-17T19:07:00.773Z,15.09
2023-05-17T19:10:05.007Z,15.17
2023-05-17T19:13:08.882Z,15.15
2023-05-17T19:16:12.559Z,15.21
2023-05-17T19:19:16.666Z,15.28
2023-05-17T19:22:22.367Z,15.35
2023-05-17T19:25:40.045Z,15.39
2023-05-17T19:28:49.424Z,15.43
2023-05-17T19:31:58.307Z,15.42
2023-05-17T19:35:08.187Z,15.46
2023-05-17T19:38:14.221Z,15.39
2023-05-17T19:41:19.548Z,15.26
2023-05-17T19:44:35.254Z,15.20
2023-05-17T19:47:42.133Z,15.22
2023-05-17T19:50:47.265Z,15.20
2023-05-17T19:54:11.124Z,15.25
2023-05-17T19:57:18.231Z,15.28
2023-05-17T20:00:22.320Z,15.27
2023-05-17T20:03:27.844Z,15.26
2023-05-17T20:06:32.292Z,15.21
2023-05-17T20:09:36.857Z,15.21
2023-05-17T20:12:41.585Z,15.22
2023-05-17T20:15:45.041Z,15.26
2023-05-17T20:18:48.739Z,15.32
2023-05-17T20:21:54.072Z,15.29
2023-05-17T20:24:58.104Z,15.31
2023-05-17T20:28:01.056Z,15.31
2023-05-17T20:31:03.717Z,15.30
2023-05-17T20:34:06.964Z,15.29
2023-05-17T20:37:11.004Z,15.25
2023-05-17T20:40:14.588Z,15.23
2023-05-17T20:43:17.472Z,15.18
2023-05-17T20:46:20.303Z,15.14
2023-05-17T20:49:23.069Z,15.02
2023-05-17T20:52:37.947Z,15.00
2023-05-17T20:55:41.789Z,15.06
2023-05-17T20:58:44.408Z,15.10
2023-05-17T21:01:47.160Z,14.99
2023-05-17T21:04:49.832Z,15.01
2023-05-17T21:07:52.513Z,14.96
2023-05-17T21:10:55.964Z,14.87
2023-05-17T21:13:59.878Z,14.81
2023-05-17T21:17:03.544Z,14.85
2023-05-17T21:20:06.839Z,14.88
2023-05-17T21:23:10.682Z,14.89
2023-05-17T21:26:13.615Z,14.88
2023-05-17T21:29:16.428Z,14.86
2023-05-17T21:32:19.198Z,14.83
2023-05-17T21:35:22.174Z,14.82
2023-05-17T21:38:25.006Z,14.84
2023-05-17T21:41:27.578Z,14.81
2023-05-17T21:44:31.284Z,14.80
2023-05-17T21:47:36.196Z,14.76
2023-05-17T21:50:38.872Z,14.74
2023-05-17T21:53:44.430Z,14.80
2023-05-17T21:56:47.069Z,14.84
2023-05-17T21:59:51.434Z,14.85
2023-05-17T22:02:54.308Z,14.86
2023-05-17T22:05:56.860Z,14.86
2023-05-17T22:08:59.353Z,14.81
2023-05-17T22:12:01.983Z,14.79
2023-05-17T22:15:04.999Z,14.65
2023-05-17T22:18:07.814Z,14.68
2023-05-17T22:21:14.028Z,14.72
2023-05-17T22:24:16.804Z,14.62
2023-05-17T22:27:20.132Z,14.59
2023-05-17T22:30:22.701Z,14.55
2023-05-17T22:33:25.719Z,14.53
2023-05-17T22:36:28.305Z,14.52
2023-05-17T22:39:30.970Z,14.50
2023-05-17T22:42:33.715Z,14.47
2023-05-17T22:45:36.692Z,14.42
2023-05-17T22:48:40.638Z,14.38
2023-05-17T22:51:43.342Z,14.29
2023-05-17T22:54:46.069Z,14.22
2023-05-17T22:57:48.727Z,14.20
2023-05-17T23:00:51.760Z,14.21
2023-05-17T23:03:54.474Z,14.19
2023-05-17T23:07:02.303Z,14.19
2023-05-17T23:10:06.957Z,14.17
2023-05-17T23:13:09.579Z,14.15
2023-05-17T23:16:14.156Z,14.10
2023-05-17T23:19:21.147Z,14.09
2023-05-17T23:22:23.860Z,14.10
2023-05-17T23:25:29.082Z,14.07
2023-05-17T23:28:33.484Z,13.99
2023-05-17T23:31:36.374Z,14.02
2023-05-17T23:34:38.970Z,14.01
2023-05-17T23:37:42.578Z,13.95
2023-05-17T23:40:45.204Z,13.93
2023-05-17T23:43:48.084Z,13.86
2023-05-17T23:46:54.008Z,13.84
2023-05-17T23:49:56.989Z,13.82
2023-05-17T23:53:03.395Z,13.80
2023-05-17T23:56:06.176Z,13.58
2023-05-17T23:59:09.774Z,13.62
